createdAt,value
2018-12-27T00:00:29.273Z,37.38
2018-12-27T00:02:56.547Z,34.90
2018-12-27T00:05:23.770Z,34.75
2018-12-27T00:07:50.999Z,35.88
2018-12-27T00:10:18.327Z,35.23
2018-12-27T00:12:45.698Z,35.30
2018-12-27T00:15:12.951Z,34.48
2018-12-27T00:17:40.324Z,36.93
2018-12-27T00:20:07.680Z,40.30
2018-12-27T00:22:34.939Z,37.75
2018-12-27T00:25:02.159Z,36.20
2018-12-27T00:27:29.367Z,37.42
2018-12-27T00:29:58.307Z,39.10
2018-12-27T00:32:25.755Z,37.95
2018-12-27T00:34:53.205Z,38.42
2018-12-27T00:37:20.693Z,40.08
2018-12-27T00:39:48.157Z,39.78
2018-12-27T00:42:15.612Z,36.70
2018-12-27T00:44:43.452Z,38.83
2018-12-27T00:47:10.884Z,39.67
2018-12-27T00:49:38.350Z,39.13
2018-12-27T00:52:05.804Z,39.20
2018-12-27T00:54:33.282Z,42.88
2018-12-27T00:57:00.731Z,37.48
2018-12-27T00:59:28.174Z,38.50
2018-12-27T01:01:55.575Z,42.00
2018-12-27T01:04:23.032Z,43.20
2018-12-27T01:06:50.482Z,41.80
2018-12-27T01:09:17.959Z,40.95
2018-12-27T01:11:45.407Z,39.80
2018-12-27T01:14:12.871Z,41.48
2018-12-27T01:16:40.352Z,42.17
2018-12-27T01:19:07.795Z,42.67
2018-12-27T01:21:35.243Z,42.13
2018-12-27T01:24:02.705Z,39.67
2018-12-27T01:26:30.083Z,39.27
2018-12-27T01:28:57.531Z,40.50
2018-12-27T01:31:24.996Z,39.03
2018-12-27T01:33:52.437Z,39.78
2018-12-27T01:36:19.840Z,39.15
2018-12-27T01:38:47.288Z,40.60
2018-12-27T01:41:14.768Z,40.88
2018-12-27T01:43:42.215Z,39.70
2018-12-27T01:46:09.667Z,39.95
2018-12-27T01:48:37.147Z,38.38
2018-12-27T01:51:04.599Z,39.23
2018-12-27T01:53:32.052Z,40.45
2018-12-27T01:55:59.531Z,38.88
2018-12-27T01:58:26.979Z,38.65
2018-12-27T02:00:54.431Z,40.75
2018-12-27T02:03:26.477Z,40.88
2018-12-27T02:05:51.073Z,42.10
2018-12-27T02:08:18.472Z,39.60
2018-12-27T02:10:45.943Z,39.73
2018-12-27T02:13:13.513Z,38.75
2018-12-27T02:15:41.094Z,37.65
2018-12-27T02:18:10.447Z,39.23
2018-12-27T02:20:37.947Z,40.83
2018-12-27T02:23:05.444Z,39.03
2018-12-27T02:25:32.892Z,43.00
2018-12-27T02:28:00.408Z,42.33
2018-12-27T02:30:27.863Z,40.08
2018-12-27T02:32:55.304Z,39.10
2018-12-27T02:35:23.002Z,38.90
2018-12-27T02:37:50.473Z,41.60
2018-12-27T02:40:17.909Z,41.20
2018-12-27T02:42:45.406Z,38.85
2018-12-27T02:45:12.852Z,49.77
2018-12-27T02:47:40.404Z,40.30
2018-12-27T02:50:07.888Z,38.60
2018-12-27T02:52:35.358Z,41.00
2018-12-27T02:55:02.811Z,39.20
2018-12-27T02:57:30.264Z,37.90
2018-12-27T02:59:57.707Z,41.25
2018-12-27T03:02:25.179Z,38.70
2018-12-27T03:04:52.635Z,39.35
2018-12-27T03:07:20.104Z,39.53
2018-12-27T03:09:47.551Z,39.03
2018-12-27T03:12:15.107Z,39.30
2018-12-27T03:14:42.780Z,39.60
2018-12-27T03:17:10.469Z,40.25
2018-12-27T03:19:38.063Z,38.40
2018-12-27T03:22:05.523Z,37.70
2018-12-27T03:24:33.017Z,39.70
2018-12-27T03:27:00.483Z,41.85
2018-12-27T03:29:28.007Z,37.03
2018-12-27T03:31:55.447Z,44.15
2018-12-27T03:34:22.909Z,39.67
2018-12-27T03:36:50.491Z,40.52
2018-12-27T03:39:17.882Z,41.28
2018-12-27T03:41:45.361Z,44.67
2018-12-27T03:44:12.970Z,42.23
2018-12-27T03:46:40.359Z,39.03
2018-12-27T03:49:08.089Z,43.87
2018-12-27T03:51:35.570Z,41.33
2018-12-27T03:54:03.053Z,44.18
2018-12-27T03:56:30.477Z,43.30
2018-12-27T03:58:57.971Z,40.35
2018-12-27T04:01:25.534Z,39.78
2018-12-27T04:04:01.036Z,45.58
2018-12-27T04:06:22.079Z,43.45
2018-12-27T04:08:49.495Z,41.42
2018-12-27T04:11:16.965Z,39.92
2018-12-27T04:13:44.445Z,40.78
2018-12-27T04:16:11.736Z,37.95
2018-12-27T04:18:39.011Z,41.53
2018-12-27T04:21:06.319Z,40.23
2018-12-27T04:23:33.631Z,41.10
2018-12-27T04:26:00.911Z,39.98
2018-12-27T04:28:28.287Z,39.08
2018-12-27T04:30:55.596Z,40.63
2018-12-27T04:33:23.001Z,36.95
2018-12-27T04:35:50.304Z,38.85
2018-12-27T04:38:17.597Z,36.20
2018-12-27T04:40:44.876Z,38.60
2018-12-27T04:43:12.284Z,40.58
2018-12-27T04:45:39.527Z,37.95
2018-12-27T04:48:06.972Z,39.35
2018-12-27T04:50:34.466Z,37.93
2018-12-27T04:53:01.857Z,38.95
2018-12-27T04:55:29.136Z,36.73
2018-12-27T04:57:56.452Z,37.35
2018-12-27T05:00:23.871Z,37.78
2018-12-27T05:02:51.145Z,40.35
2018-12-27T05:05:18.820Z,39.25
2018-12-27T05:07:46.207Z,39.80
2018-12-27T05:10:13.539Z,37.42
2018-12-27T05:12:40.819Z,36.40
2018-12-27T05:15:08.110Z,37.75
2018-12-27T05:17:36.616Z,37.88
2018-12-27T05:20:06.637Z,36.20
2018-12-27T05:22:36.735Z,35.73
2018-12-27T05:25:04.056Z,41.70
2018-12-27T05:27:31.399Z,37.20
2018-12-27T05:29:58.672Z,36.75
2018-12-27T05:32:25.946Z,41.33
2018-12-27T05:34:53.175Z,36.08
2018-12-27T05:37:20.479Z,37.15
2018-12-27T05:39:47.772Z,34.45
2018-12-27T05:42:16.104Z,36.28
2018-12-27T05:44:43.379Z,35.15
2018-12-27T05:47:10.671Z,37.80
2018-12-27T05:49:38.868Z,39.10
2018-12-27T05:52:06.250Z,32.83
2018-12-27T05:54:33.542Z,35.90
2018-12-27T05:57:00.851Z,35.95
2018-12-27T05:59:28.139Z,35.58
2018-12-27T06:01:55.424Z,33.53
2018-12-27T06:04:22.723Z,43.63
2018-12-27T06:06:50.009Z,34.95
2018-12-27T06:09:17.305Z,32.90
2018-12-27T06:11:44.586Z,32.20
2018-12-27T06:14:11.896Z,33.18
2018-12-27T06:16:39.180Z,33.23
2018-12-27T06:19:06.457Z,30.60
2018-12-27T06:21:33.763Z,31.40
2018-12-27T06:24:01.046Z,29.20
2018-12-27T06:26:28.358Z,34.43
2018-12-27T06:28:55.648Z,32.65
2018-12-27T06:31:22.927Z,30.17
2018-12-27T06:33:50.219Z,32.20
2018-12-27T06:36:17.436Z,32.83
2018-12-27T06:38:44.749Z,34.90
2018-12-27T06:41:12.104Z,35.98
2018-12-27T06:43:39.383Z,33.45
2018-12-27T06:46:06.609Z,33.48
2018-12-27T06:48:33.887Z,31.93
2018-12-27T06:51:01.199Z,35.23
2018-12-27T06:53:28.470Z,34.35
2018-12-27T06:55:55.679Z,36.45
2018-12-27T06:58:22.990Z,32.55
2018-12-27T07:00:50.281Z,32.40
2018-12-27T07:03:17.578Z,33.55
2018-12-27T07:05:44.787Z,31.62
2018-12-27T07:08:12.090Z,33.28
2018-12-27T07:10:39.376Z,31.15
2018-12-27T07:13:06.658Z,36.45
2018-12-27T07:15:33.963Z,32.53
2018-12-27T07:18:01.251Z,31.42
2018-12-27T07:20:28.545Z,32.38
2018-12-27T07:22:55.764Z,32.45
2018-12-27T07:25:23.067Z,32.30
2018-12-27T07:27:50.356Z,33.23
2018-12-27T07:30:17.630Z,32.45
2018-12-27T07:32:44.940Z,35.58
2018-12-27T07:35:12.218Z,34.67
2018-12-27T07:37:39.515Z,30.35
2018-12-27T07:40:07.083Z,30.75
2018-12-27T07:42:34.287Z,31.73
2018-12-27T07:45:01.578Z,30.12
2018-12-27T07:47:28.881Z,31.33
2018-12-27T07:49:56.154Z,29.65
2018-12-27T07:52:23.393Z,27.80
2018-12-27T07:54:50.672Z,29.45
2018-12-27T07:57:17.982Z,30.65
2018-12-27T07:59:45.262Z,30.57
2018-12-27T08:02:12.548Z,28.35
2018-12-27T08:04:39.855Z,30.82
2018-12-27T08:07:07.128Z,27.17
2018-12-27T08:09:34.446Z,27.73
2018-12-27T08:12:01.724Z,28.10
2018-12-27T08:14:29.008Z,28.25
2018-12-27T08:16:56.388Z,28.87
2018-12-27T08:19:23.653Z,32.90
2018-12-27T08:21:50.873Z,32.23
2018-12-27T08:24:18.176Z,29.20
2018-12-27T08:26:45.491Z,28.17
2018-12-27T08:29:12.772Z,28.38
2018-12-27T08:31:40.055Z,27.67
2018-12-27T08:34:07.354Z,36.98
2018-12-27T08:36:34.557Z,34.38
2018-12-27T08:39:01.764Z,28.32
2018-12-27T08:41:29.071Z,27.35
2018-12-27T08:43:56.368Z,30.65
2018-12-27T08:46:23.662Z,29.72
2018-12-27T08:48:50.957Z,35.15
2018-12-27T08:51:18.255Z,38.35
2018-12-27T08:53:45.462Z,35.55
2018-12-27T08:56:12.776Z,31.10
2018-12-27T08:58:40.046Z,26.75
2018-12-27T09:01:07.258Z,26.42
2018-12-27T09:03:34.567Z,26.27
2018-12-27T09:06:01.901Z,31.12
2018-12-27T09:08:29.175Z,29.72
2018-12-27T09:10:56.379Z,23.67
2018-12-27T09:13:23.692Z,24.10
2018-12-27T09:15:51.043Z,28.15
2018-12-27T09:18:18.336Z,33.83
2018-12-27T09:20:45.629Z,29.02
2018-12-27T09:23:12.848Z,30.02
2018-12-27T09:25:41.048Z,34.73
2018-12-27T09:28:08.331Z,27.67
2018-12-27T09:30:35.608Z,33.63
2018-12-27T09:33:02.925Z,30.80
2018-12-27T09:35:30.212Z,25.88
2018-12-27T09:37:57.539Z,29.50
2018-12-27T09:40:24.815Z,20.10
2018-12-27T09:42:52.094Z,23.52
2018-12-27T09:45:19.308Z,29.02
2018-12-27T09:47:46.616Z,30.70
2018-12-27T09:50:13.928Z,27.98
2018-12-27T09:52:41.231Z,29.52
2018-12-27T09:55:08.516Z,25.88
2018-12-27T09:57:35.815Z,32.03
2018-12-27T10:00:03.999Z,32.28
2018-12-27T10:02:31.284Z,30.68
2018-12-27T10:04:58.591Z,26.50
2018-12-27T10:07:25.862Z,40.55
2018-12-27T10:09:53.073Z,26.97
2018-12-27T10:12:20.383Z,30.25
2018-12-27T10:14:47.667Z,36.98
2018-12-27T10:17:14.971Z,28.98
2018-12-27T10:19:42.263Z,27.87
2018-12-27T10:22:09.545Z,26.57
2018-12-27T10:24:36.842Z,30.90
2018-12-27T10:27:04.055Z,30.35
2018-12-27T10:29:31.371Z,26.57
2018-12-27T10:31:58.662Z,31.45
2018-12-27T10:34:25.961Z,29.40
2018-12-27T10:36:53.280Z,31.95
2018-12-27T10:39:20.564Z,27.60
2018-12-27T10:41:47.839Z,31.80
2018-12-27T10:44:15.071Z,35.00
2018-12-27T10:46:42.370Z,27.42
2018-12-27T10:49:09.570Z,31.35
2018-12-27T10:51:36.781Z,24.77
2018-12-27T10:54:04.088Z,31.45
2018-12-27T10:56:31.368Z,32.03
2018-12-27T10:58:58.646Z,31.75
2018-12-27T11:01:25.965Z,29.90
2018-12-27T11:03:53.256Z,28.30
2018-12-27T11:06:20.583Z,34.50
2018-12-27T11:08:48.874Z,30.30
2018-12-27T11:11:16.166Z,30.08
2018-12-27T11:13:43.452Z,25.20
2018-12-27T11:16:10.728Z,28.57
2018-12-27T11:18:38.032Z,29.15
2018-12-27T11:21:05.313Z,28.25
2018-12-27T11:23:32.608Z,29.50
2018-12-27T11:26:00.334Z,24.82
2018-12-27T11:28:27.991Z,34.53
2018-12-27T11:30:55.484Z,29.45
2018-12-27T11:33:23.282Z,24.18
2018-12-27T11:35:55.795Z,22.00
2018-12-27T11:38:19.526Z,23.83
2018-12-27T11:40:46.983Z,21.27
2018-12-27T11:43:14.280Z,23.47
2018-12-27T11:45:41.676Z,18.73
2018-12-27T11:48:10.512Z,20.00
2018-12-27T11:50:38.247Z,18.27
2018-12-27T11:53:05.552Z,20.70
2018-12-27T11:55:32.867Z,20.77
2018-12-27T11:58:00.142Z,18.07
2018-12-27T12:00:27.356Z,23.38
2018-12-27T12:02:54.673Z,22.60
2018-12-27T12:05:21.955Z,18.75
2018-12-27T12:07:49.461Z,18.80
2018-12-27T12:10:18.065Z,16.05
2018-12-27T12:12:45.520Z,16.73
2018-12-27T12:15:12.813Z,21.00
2018-12-27T12:17:40.122Z,21.45
2018-12-27T12:20:07.394Z,18.62
2018-12-27T12:22:34.606Z,21.17
2018-12-27T12:25:01.912Z,17.45
2018-12-27T12:27:29.185Z,20.77
2018-12-27T12:29:56.422Z,17.10
2018-12-27T12:32:23.703Z,18.90
2018-12-27T12:34:50.979Z,18.62
2018-12-27T12:37:18.278Z,22.10
2018-12-27T12:39:45.481Z,21.33
2018-12-27T12:42:12.763Z,16.30
2018-12-27T12:44:40.075Z,17.73
2018-12-27T12:47:07.355Z,17.35
2018-12-27T12:49:34.640Z,16.12
2018-12-27T12:52:01.951Z,18.45
2018-12-27T12:54:29.241Z,17.60
2018-12-27T12:56:56.517Z,18.27
2018-12-27T12:59:23.815Z,14.93
2018-12-27T13:01:51.029Z,17.85
2018-12-27T13:04:18.311Z,20.12
2018-12-27T13:06:45.612Z,14.75
2018-12-27T13:09:12.957Z,21.12
2018-12-27T13:11:40.201Z,16.12
2018-12-27T13:14:07.483Z,19.37
2018-12-27T13:16:34.801Z,17.73
2018-12-27T13:19:02.083Z,16.82
2018-12-27T13:21:29.364Z,14.60
2018-12-27T13:23:56.677Z,17.23
2018-12-27T13:26:23.952Z,19.77
2018-12-27T13:28:51.235Z,17.45
2018-12-27T13:31:18.540Z,21.37
2018-12-27T13:33:45.831Z,19.57
2018-12-27T13:36:13.138Z,18.35
2018-12-27T13:38:40.347Z,18.07
2018-12-27T13:41:07.671Z,22.70
2018-12-27T13:43:34.959Z,18.62
2018-12-27T13:46:02.232Z,17.95
2018-12-27T13:48:29.534Z,20.43
2018-12-27T13:50:56.821Z,26.12
2018-12-27T13:53:24.130Z,43.70
2018-12-27T13:55:51.411Z,21.05
2018-12-27T13:58:18.688Z,17.85
2018-12-27T14:00:45.992Z,19.48
2018-12-27T14:03:13.266Z,20.80
2018-12-27T14:05:40.578Z,24.63
2018-12-27T14:08:07.873Z,30.57
2018-12-27T14:10:35.157Z,20.35
2018-12-27T14:13:02.540Z,17.67
2018-12-27T14:15:29.851Z,27.20
2018-12-27T14:17:57.160Z,22.00
2018-12-27T14:20:24.439Z,21.93
2018-12-27T14:22:51.723Z,18.80
2018-12-27T14:25:19.040Z,17.20
2018-12-27T14:27:46.324Z,18.25
2018-12-27T14:30:13.624Z,20.82
2018-12-27T14:32:40.836Z,19.30
2018-12-27T14:35:08.126Z,17.40
2018-12-27T14:37:35.432Z,20.27
2018-12-27T14:40:03.309Z,18.98
2018-12-27T14:42:30.597Z,17.98
2018-12-27T14:44:57.906Z,16.82
2018-12-27T14:47:25.185Z,20.60
2018-12-27T14:49:52.470Z,18.02
2018-12-27T14:52:19.787Z,24.67
2018-12-27T14:54:47.072Z,17.92
2018-12-27T14:57:14.354Z,20.72
2018-12-27T14:59:41.579Z,19.80
2018-12-27T15:02:08.811Z,17.82
2018-12-27T15:04:36.087Z,21.55
2018-12-27T15:07:03.375Z,22.60
2018-12-27T15:09:30.679Z,20.40
2018-12-27T15:11:57.971Z,23.57
2018-12-27T15:14:25.303Z,22.62
2018-12-27T15:16:52.581Z,21.73
2018-12-27T15:19:19.862Z,22.67
2018-12-27T15:21:47.182Z,21.55
2018-12-27T15:24:14.470Z,26.48
2018-12-27T15:26:41.740Z,22.58
2018-12-27T15:29:08.972Z,24.80
2018-12-27T15:31:36.256Z,21.90
2018-12-27T15:34:03.530Z,23.30
2018-12-27T15:36:30.850Z,21.90
2018-12-27T15:38:58.174Z,23.98
2018-12-27T15:41:25.450Z,24.70
2018-12-27T15:43:52.684Z,23.83
2018-12-27T15:46:19.986Z,23.95
2018-12-27T15:48:47.279Z,23.35
2018-12-27T15:51:14.591Z,26.30
2018-12-27T15:53:41.890Z,23.62
2018-12-27T15:56:09.191Z,23.30
2018-12-27T15:58:36.496Z,28.25
2018-12-27T16:01:03.802Z,52.13
2018-12-27T16:03:31.107Z,39.53
2018-12-27T16:05:58.383Z,55.98
2018-12-27T16:08:25.590Z,49.42
2018-12-27T16:10:52.821Z,51.98
2018-12-27T16:13:20.113Z,38.20
2018-12-27T16:15:47.395Z,29.57
2018-12-27T16:18:14.707Z,27.70
2018-12-27T16:20:41.995Z,26.73
2018-12-27T16:23:09.283Z,28.83
2018-12-27T16:25:36.587Z,26.68
2018-12-27T16:28:03.866Z,29.65
2018-12-27T16:30:31.167Z,30.35
2018-12-27T16:32:58.453Z,28.75
2018-12-27T16:35:25.772Z,30.05
2018-12-27T16:37:53.046Z,36.58
2018-12-27T16:40:20.265Z,32.70
2018-12-27T16:42:47.559Z,30.85
2018-12-27T16:45:14.767Z,33.75
2018-12-27T16:47:43.213Z,39.30
2018-12-27T16:50:10.577Z,29.98
2018-12-27T16:52:37.887Z,27.90
2018-12-27T16:55:05.192Z,27.85
2018-12-27T16:57:32.479Z,26.35
2018-12-27T16:59:59.792Z,26.90
2018-12-27T17:02:27.081Z,27.27
2018-12-27T17:04:54.355Z,24.52
2018-12-27T17:07:21.653Z,22.07
2018-12-27T17:09:48.859Z,25.70
2018-12-27T17:12:16.166Z,22.85
2018-12-27T17:14:43.467Z,24.55
2018-12-27T17:17:10.752Z,25.68
2018-12-27T17:19:38.066Z,24.47
2018-12-27T17:22:05.351Z,23.50
2018-12-27T17:24:32.637Z,24.90
2018-12-27T17:26:59.931Z,27.07
2018-12-27T17:29:27.220Z,38.85
2018-12-27T17:31:54.525Z,27.20
2018-12-27T17:34:21.840Z,29.48
2018-12-27T17:36:49.142Z,26.77
2018-12-27T17:39:16.427Z,23.18
2018-12-27T17:41:43.848Z,25.72
2018-12-27T17:44:11.183Z,37.63
2018-12-27T17:46:38.454Z,23.60
2018-12-27T17:49:05.659Z,34.83
2018-12-27T17:51:32.963Z,47.85
2018-12-27T17:54:00.252Z,38.58
2018-12-27T17:56:27.544Z,24.50
2018-12-27T17:58:54.850Z,25.10
2018-12-27T18:01:22.119Z,25.72
2018-12-27T18:03:49.506Z,25.68
2018-12-27T18:06:16.796Z,26.93
2018-12-27T18:08:44.183Z,37.08
2018-12-27T18:11:11.399Z,65.22
2018-12-27T18:13:38.684Z,116.65
2018-12-27T18:16:05.987Z,30.85
2018-12-27T18:18:33.280Z,23.62
2018-12-27T18:21:00.588Z,24.07
2018-12-27T18:23:27.878Z,25.55
2018-12-27T18:25:55.152Z,26.10
2018-12-27T18:28:22.464Z,23.83
2018-12-27T18:30:49.743Z,23.45
2018-12-27T18:33:17.022Z,28.25
2018-12-27T18:35:44.257Z,25.30
2018-12-27T18:38:11.544Z,24.72
2018-12-27T18:40:38.852Z,25.10
2018-12-27T18:43:06.134Z,28.87
2018-12-27T18:45:33.442Z,28.57
2018-12-27T18:48:00.745Z,24.47
2018-12-27T18:50:28.026Z,28.55
2018-12-27T18:52:55.308Z,40.92
2018-12-27T18:55:22.623Z,51.85
2018-12-27T18:57:49.908Z,33.02
2018-12-27T19:00:17.214Z,26.93
2018-12-27T19:02:44.486Z,24.55
2018-12-27T19:05:11.792Z,24.95
2018-12-27T19:07:44.850Z,26.73
2018-12-27T19:10:08.013Z,25.37
2018-12-27T19:12:53.375Z,24.50
2018-12-27T19:15:20.656Z,25.80
2018-12-27T19:17:48.908Z,27.70
2018-12-27T19:20:16.379Z,26.73
2018-12-27T19:22:45.292Z,25.90
2018-12-27T19:25:12.590Z,25.32
2018-12-27T19:27:39.804Z,28.83
2018-12-27T19:30:07.089Z,49.20
2018-12-27T19:32:34.390Z,30.23
2018-12-27T19:35:01.606Z,25.77
2018-12-27T19:37:28.910Z,26.48
2018-12-27T19:39:56.190Z,28.07
2018-12-27T19:42:23.512Z,29.63
2018-12-27T19:44:50.792Z,46.70
2018-12-27T19:47:18.078Z,49.50
2018-12-27T19:49:45.391Z,35.38
2018-12-27T19:52:12.671Z,30.08
2018-12-27T19:54:39.983Z,29.25
2018-12-27T19:57:07.262Z,29.85
2018-12-27T19:59:34.544Z,40.43
2018-12-27T20:02:01.849Z,40.95
2018-12-27T20:04:29.136Z,52.13
2018-12-27T20:06:56.440Z,57.13
2018-12-27T20:09:23.723Z,33.23
2018-12-27T20:11:51.002Z,29.57
2018-12-27T20:14:18.313Z,28.52
2018-12-27T20:16:45.594Z,31.07
2018-12-27T20:19:12.981Z,30.77
2018-12-27T20:21:40.259Z,29.70
2018-12-27T20:24:07.466Z,30.50
2018-12-27T20:26:34.780Z,32.83
2018-12-27T20:29:02.071Z,34.53
2018-12-27T20:31:29.379Z,36.20
2018-12-27T20:33:56.663Z,32.70
2018-12-27T20:36:23.942Z,31.27
2018-12-27T20:38:51.169Z,32.80
2018-12-27T20:41:18.381Z,31.57
2018-12-27T20:43:45.695Z,43.13
2018-12-27T20:46:12.980Z,34.10
2018-12-27T20:48:40.272Z,41.37
2018-12-27T20:51:07.570Z,33.70
2018-12-27T20:53:34.851Z,33.42
2018-12-27T20:56:02.165Z,37.98
2018-12-27T20:58:29.444Z,33.70
2018-12-27T21:00:56.760Z,34.33
2018-12-27T21:03:24.051Z,33.63
2018-12-27T21:05:51.407Z,36.03
2018-12-27T21:08:18.715Z,38.45
2018-12-27T21:10:45.995Z,37.15
2018-12-27T21:13:13.206Z,36.35
2018-12-27T21:15:40.514Z,39.75
2018-12-27T21:18:07.801Z,35.95
2018-12-27T21:20:35.088Z,31.33
2018-12-27T21:23:02.397Z,44.00
2018-12-27T21:25:29.724Z,51.70
2018-12-27T21:27:56.956Z,71.28
2018-12-27T21:30:24.267Z,100.55
2018-12-27T21:32:51.466Z,62.58
2018-12-27T21:35:18.708Z,44.95
2018-12-27T21:37:45.995Z,36.30
2018-12-27T21:40:13.278Z,39.08
2018-12-27T21:42:40.587Z,35.90
2018-12-27T21:45:07.871Z,26.77
2018-12-27T21:47:35.254Z,26.00
2018-12-27T21:50:02.520Z,27.60
2018-12-27T21:52:29.807Z,28.65
2018-12-27T21:54:57.106Z,26.65
2018-12-27T21:57:24.399Z,27.02
2018-12-27T21:59:51.702Z,25.60
2018-12-27T22:02:18.994Z,26.57
2018-12-27T22:04:46.275Z,28.85
2018-12-27T22:07:13.587Z,29.85
2018-12-27T22:09:40.876Z,28.75
2018-12-27T22:12:08.170Z,26.52
2018-12-27T22:14:35.509Z,31.73
2018-12-27T22:17:02.816Z,33.53
2018-12-27T22:19:30.093Z,34.13
2018-12-27T22:21:57.389Z,31.87
2018-12-27T22:24:24.687Z,34.55
2018-12-27T22:26:51.905Z,36.20
2018-12-27T22:29:19.183Z,39.33
2018-12-27T22:31:46.483Z,30.57
2018-12-27T22:34:13.771Z,31.07
2018-12-27T22:36:41.094Z,27.22
2018-12-27T22:39:08.373Z,26.30
2018-12-27T22:41:35.654Z,27.20
2018-12-27T22:44:02.887Z,27.20
2018-12-27T22:46:30.165Z,26.23
2018-12-27T22:48:57.474Z,27.45
2018-12-27T22:51:24.766Z,28.00
2018-12-27T22:53:52.042Z,28.25
2018-12-27T22:56:19.271Z,27.58
2018-12-27T22:58:46.551Z,29.02
2018-12-27T23:01:13.939Z,27.70
2018-12-27T23:03:41.218Z,30.30
2018-12-27T23:06:08.494Z,30.40
2018-12-27T23:08:42.832Z,30.40
2018-12-27T23:11:04.730Z,31.10
2018-12-27T23:13:32.035Z,32.88
2018-12-27T23:15:59.239Z,30.25
2018-12-27T23:18:26.529Z,31.10
2018-12-27T23:20:53.851Z,29.52
2018-12-27T23:23:21.129Z,31.57
2018-12-27T23:25:48.483Z,30.95
2018-12-27T23:28:15.777Z,33.80
2018-12-27T23:30:43.057Z,31.65
2018-12-27T23:33:10.359Z,30.35
2018-12-27T23:35:37.634Z,30.27
2018-12-27T23:38:04.924Z,30.45
2018-12-27T23:40:32.256Z,29.20
2018-12-27T23:42:59.520Z,30.95
2018-12-27T23:45:26.822Z,31.62
2018-12-27T23:47:54.108Z,29.07
2018-12-27T23:50:21.390Z,29.52
2018-12-27T23:52:49.841Z,30.10
2018-12-27T23:55:17.320Z,32.38
2018-12-27T23:57:44.631Z,28.32
